Time;durP1;ratioP1;P1;durP2;ratioP2;P2;SDS_P1;SDS_P2;PMS_P1;PMS_P2;Temp;Humidity;BMP_temperature;BMP_pressure;BME280_temperature;BME280_humidity;BME280_pressure;Samples;Min_cycle;Max_cycle;Signal;HPM_P1;HPM_P2
2022/12/05 00:01:22;;;;;;;;;;;3.30;85.60;;;;;;5049319;28;19921;-79
2022/12/05 00:03:48;;;;;;;;;;;3.30;85.10;;;;;;5058411;28;19917;-80
2022/12/05 00:06:14;;;;;;;;;;;3.20;85.50;;;;;;5048306;28;19944;-80
2022/12/05 00:08:40;;;;;;;;;;;3.20;85.50;;;;;;5061394;28;19927;-80
2022/12/05 00:11:12;;;;;;;;;;;3.20;85.30;;;;;;5049379;28;19963;-79
2022/12/05 00:13:39;;;;;;;;;;;3.10;85.40;;;;;;5050692;28;19920;-80
2022/12/05 00:16:09;;;;;;;;;;;3.20;85.40;;;;;;5049596;28;19923;-80
2022/12/05 00:18:34;;;;;;;;;;;3.30;85.30;;;;;;5056729;28;19913;-80
2022/12/05 00:21:00;;;;;;;;;;;3.30;85.20;;;;;;5055798;28;19946;-80
2022/12/05 00:23:25;;;;;;;;;;;3.30;85.20;;;;;;5068946;28;20415;-80
2022/12/05 00:25:50;;;;;;;;;;;3.50;85.00;;;;;;5055073;28;19920;-81
2022/12/05 00:28:16;;;;;;;;;;;3.40;84.70;;;;;;5054769;28;19920;-81
2022/12/05 00:30:41;;;;;;;;;;;3.30;84.90;;;;;;5052567;28;19919;-80
2022/12/05 00:33:07;;;;;;;;;;;3.30;85.30;;;;;;5054397;28;19936;-81
2022/12/05 00:35:33;;;;;;;;;;;3.60;84.70;;;;;;5056992;28;21299;-79
2022/12/05 00:37:58;;;;;;;;;;;3.50;84.20;;;;;;5052700;28;19913;-80
2022/12/05 00:40:24;;;;;;;;;;;3.30;84.90;;;;;;5051187;28;19917;-80
2022/12/05 00:42:49;;;;;;;;;;;3.30;85.00;;;;;;5059330;28;19920;-80
2022/12/05 00:45:15;;;;;;;;;;;3.30;85.20;;;;;;5050682;28;19913;-80
2022/12/05 00:47:40;;;;;;;;;;;3.20;85.30;;;;;;5050528;28;19964;-80
2022/12/05 00:50:06;;;;;;;;;;;3.20;85.60;;;;;;5050324;28;19909;-79
2022/12/05 00:52:31;;;;;;;;;;;3.10;85.60;;;;;;5050367;28;19960;-79
2022/12/05 00:54:57;;;;;;;;;;;3.10;85.80;;;;;;5047783;28;20087;-80
2022/12/05 00:57:22;;;;;;;;;;;3.00;86.10;;;;;;5053703;28;19917;-81
2022/12/05 00:59:48;;;;;;;;;;;3.00;86.20;;;;;;5053781;28;20007;-80
2022/12/05 01:02:13;;;;;;;;;;;3.00;86.30;;;;;;5046181;28;19913;-81
2022/12/05 01:04:39;;;;;;;;;;;3.00;86.50;;;;;;5050116;28;19913;-80
2022/12/05 01:07:04;;;;;;;;;;;3.00;86.60;;;;;;5049713;28;20688;-80
2022/12/05 01:09:29;;;;;;;;;;;3.00;86.40;;;;;;5049655;28;19918;-79
2022/12/05 01:11:55;;;;;;;;;;;3.10;86.60;;;;;;5046645;28;19912;-80
2022/12/05 01:14:22;;;;;;;;;;;3.00;86.30;;;;;;5045782;28;20338;-80
2022/12/05 01:16:48;;;;;;;;;;;3.10;86.10;;;;;;5045741;28;19970;-80
2022/12/05 01:19:16;;;;;;;;;;;3.10;86.50;;;;;;5047487;28;19912;-80
2022/12/05 01:21:42;;;;;;;;;;;3.00;86.70;;;;;;5047510;28;19920;-80
2022/12/05 01:24:08;;;;;;;;;;;3.00;87.00;;;;;;5048656;28;20379;-80
2022/12/05 01:26:33;;;;;;;;;;;3.00;87.10;;;;;;5046718;28;19925;-79
2022/12/05 01:28:59;;;;;;;;;;;3.00;86.90;;;;;;5047931;28;19913;-80
2022/12/05 01:31:29;;;;;;;;;;;3.00;87.30;;;;;;5048843;28;19917;-79
2022/12/05 01:33:55;;;;;;;;;;;3.10;87.30;;;;;;5040060;28;19964;-80
2022/12/05 01:36:21;;;;;;;;;;;3.20;87.10;;;;;;5048866;28;19932;-80
2022/12/05 01:38:47;;;;;;;;;;;3.30;86.80;;;;;;5062460;28;19920;-80
2022/12/05 01:41:18;;;;;;;;;;;3.10;86.90;;;;;;5050801;28;20022;-81
2022/12/05 01:43:52;;;;;;;;;;;3.30;86.80;;;;;;5052715;28;19978;-81
2022/12/05 01:46:18;;;;;;;;;;;3.30;86.90;;;;;;5050165;28;19917;-80
2022/12/05 01:48:43;;;;;;;;;;;3.20;87.10;;;;;;5068938;28;19913;-80
2022/12/05 01:51:09;;;;;;;;;;;3.10;87.00;;;;;;5073764;28;19913;-80
2022/12/05 01:53:35;;;;;;;;;;;3.20;87.30;;;;;;5056865;28;19935;-80
2022/12/05 01:56:00;;;;;;;;;;;3.20;87.20;;;;;;5050624;28;20015;-79
2022/12/05 01:58:30;;;;;;;;;;;3.40;86.80;;;;;;5051818;28;20564;-81
2022/12/05 02:00:55;;;;;;;;;;;3.50;86.80;;;;;;5049530;28;20372;-80
2022/12/05 02:03:21;;;;;;;;;;;3.60;86.40;;;;;;5052721;28;19974;-80
2022/12/05 02:05:49;;;;;;;;;;;3.60;86.20;;;;;;5050943;28;20443;-80
2022/12/05 02:08:15;;;;;;;;;;;3.50;86.00;;;;;;5078688;28;19909;-79
2022/12/05 02:10:42;;;;;;;;;;;3.40;86.00;;;;;;5074749;28;20078;-79
2022/12/05 02:13:24;;;;;;;;;;;3.20;86.80;;;;;;5078669;28;19901;-79
2022/12/05 02:15:52;;;;;;;;;;;3.20;87.00;;;;;;5073527;28;19979;-79
2022/12/05 02:18:27;;;;;;;;;;;3.30;87.30;;;;;;5075606;28;19905;-78
2022/12/05 02:21:11;;;;;;;;;;;3.40;86.80;;;;;;5076263;28;19909;-81
2022/12/05 02:23:50;;;;;;;;;;;3.30;87.10;;;;;;5054095;28;19920;-79
2022/12/05 02:26:26;;;;;;;;;;;3.30;87.00;;;;;;5051885;28;19913;-81
2022/12/05 02:29:00;;;;;;;;;;;3.30;87.10;;;;;;5051989;28;19963;-81
2022/12/05 02:31:30;;;;;;;;;;;3.20;87.10;;;;;;5049441;28;20271;-81
2022/12/05 02:34:04;;;;;;;;;;;3.10;87.50;;;;;;5059834;28;20253;-81
2022/12/05 02:36:29;;;;;;;;;;;3.20;87.70;;;;;;5052726;28;20387;-81
2022/12/05 02:39:04;;;;;;;;;;;3.20;87.40;;;;;;5050944;28;20022;-81
2022/12/05 02:41:38;;;;;;;;;;;3.30;87.30;;;;;;5049090;28;19913;-82
2022/12/05 02:44:17;;;;;;;;;;;3.20;87.10;;;;;;5050463;28;19999;-82
2022/12/05 02:46:45;;;;;;;;;;;3.30;86.90;;;;;;5048967;28;20003;-81
2022/12/05 02:49:13;;;;;;;;;;;3.30;86.70;;;;;;5050268;28;19917;-81
2022/12/05 02:51:43;;;;;;;;;;;3.20;86.90;;;;;;5049263;28;19959;-80
2022/12/05 02:54:14;;;;;;;;;;;3.30;87.20;;;;;;5061586;28;20380;-81
2022/12/05 02:56:42;;;;;;;;;;;3.30;86.90;;;;;;5048290;28;19917;-80
2022/12/05 02:59:08;;;;;;;;;;;3.30;87.10;;;;;;5051531;28;19912;-81
2022/12/05 03:01:33;;;;;;;;;;;3.10;87.10;;;;;;5048198;28;19921;-79
2022/12/05 03:04:00;;;;;;;;;;;3.10;87.40;;;;;;5059455;28;19940;-80
2022/12/05 03:06:28;;;;;;;;;;;3.20;87.60;;;;;;5051417;28;19999;-81
2022/12/05 03:08:56;;;;;;;;;;;3.30;87.20;;;;;;5062256;28;19924;-81
2022/12/05 03:11:22;;;;;;;;;;;3.30;87.00;;;;;;5050682;28;19920;-81
2022/12/05 03:13:49;;;;;;;;;;;3.10;87.10;;;;;;5055504;28;19917;-81
2022/12/05 03:16:19;;;;;;;;;;;3.20;87.40;;;;;;5045762;28;19917;-81
2022/12/05 03:18:49;;;;;;;;;;;3.30;87.20;;;;;;5051727;28;19996;-81
2022/12/05 03:21:21;;;;;;;;;;;3.30;87.10;;;;;;5043791;28;19920;-81
2022/12/05 03:23:49;;;;;;;;;;;3.30;87.10;;;;;;5055121;28;19920;-81
2022/12/05 03:26:19;;;;;;;;;;;3.30;87.20;;;;;;5050891;28;19912;-81
2022/12/05 03:29:03;;;;;;;;;;;3.40;86.90;;;;;;5050111;28;19913;-80
2022/12/05 03:31:53;;;;;;;;;;;3.40;86.90;;;;;;5047804;28;19921;-80
2022/12/05 03:34:38;;;;;;;;;;;3.30;86.80;;;;;;5029894;28;19920;-80
2022/12/05 03:37:05;;;;;;;;;;;3.30;86.80;;;;;;5049117;28;19923;-81
2022/12/05 03:39:32;;;;;;;;;;;3.20;86.70;;;;;;5045522;28;19917;-81
2022/12/05 03:42:16;;;;;;;;;;;3.10;86.90;;;;;;5049877;28;19917;-81
2022/12/05 03:44:41;;;;;;;;;;;3.10;87.20;;;;;;5045802;28;19920;-80
2022/12/05 03:47:20;;;;;;;;;;;3.10;87.20;;;;;;5052209;28;19940;-81
2022/12/05 03:49:50;;;;;;;;;;;3.10;87.50;;;;;;5054559;28;20388;-81
2022/12/05 03:52:31;;;;;;;;;;;3.10;87.50;;;;;;5055655;28;20007;-80
2022/12/05 03:55:00;;;;;;;;;;;3.10;87.30;;;;;;5068725;28;19912;-81
2022/12/05 03:57:36;;;;;;;;;;;3.10;87.60;;;;;;5052301;28;19982;-81
2022/12/05 04:00:04;;;;;;;;;;;3.10;88.00;;;;;;5054692;28;19939;-80
2022/12/05 04:02:48;;;;;;;;;;;3.10;87.90;;;;;;5056972;28;19947;-81
2022/12/05 04:05:25;;;;;;;;;;;3.10;87.70;;;;;;5053320;28;20391;-80
2022/12/05 04:07:53;;;;;;;;;;;3.20;87.90;;;;;;5065355;28;20637;-80
2022/12/05 04:10:21;;;;;;;;;;;3.10;87.50;;;;;;5048566;28;20377;-81
2022/12/05 04:12:47;;;;;;;;;;;3.10;87.90;;;;;;5053840;28;19921;-81
2022/12/05 04:15:15;;;;;;;;;;;3.10;87.90;;;;;;5050471;28;20555;-81
2022/12/05 04:17:41;;;;;;;;;;;3.10;87.90;;;;;;5054435;28;20011;-81
2022/12/05 04:22:57;;;;;;;;;;;2.90;87.90;;;;;;5052671;28;19999;-81
2022/12/05 04:25:32;;;;;;;;;;;2.80;88.20;;;;;;5052754;28;19949;-80
2022/12/05 04:28:10;;;;;;;;;;;2.80;88.30;;;;;;5045652;28;20380;-81
2022/12/05 04:30:39;;;;;;;;;;;2.80;88.40;;;;;;5043647;28;19912;-80
2022/12/05 04:33:11;;;;;;;;;;;2.80;88.50;;;;;;5047498;28;19978;-79
2022/12/05 04:35:36;;;;;;;;;;;3.00;88.20;;;;;;5060878;28;19999;-79
2022/12/05 04:38:10;;;;;;;;;;;3.00;88.10;;;;;;5050554;28;20376;-79
2022/12/05 04:40:59;;;;;;;;;;;2.90;88.40;;;;;;5045024;28;20555;-79
2022/12/05 04:43:25;;;;;;;;;;;3.00;88.50;;;;;;5037925;28;20003;-78
2022/12/05 04:45:52;;;;;;;;;;;3.00;88.70;;;;;;5049804;28;20419;-79
2022/12/05 04:48:18;;;;;;;;;;;3.10;88.50;;;;;;5048507;28;20049;-79
2022/12/05 04:50:45;;;;;;;;;;;3.10;88.50;;;;;;5070954;28;19919;-78
2022/12/05 04:53:11;;;;;;;;;;;3.10;88.30;;;;;;5052375;28;19920;-78
2022/12/05 04:55:40;;;;;;;;;;;3.10;88.30;;;;;;5057409;28;19923;-78
2022/12/05 04:58:07;;;;;;;;;;;3.20;88.50;;;;;;5067467;28;19939;-78
2022/12/05 05:00:36;;;;;;;;;;;3.20;88.40;;;;;;5050406;28;20486;-78
2022/12/05 05:03:04;;;;;;;;;;;3.30;88.60;;;;;;5048192;28;19955;-79
2022/12/05 05:05:30;;;;;;;;;;;3.30;88.10;;;;;;5053468;28;19992;-79
2022/12/05 05:07:56;;;;;;;;;;;3.50;87.90;;;;;;5049764;28;19939;-79
2022/12/05 05:10:29;;;;;;;;;;;3.30;87.90;;;;;;5055459;28;20324;-78
2022/12/05 05:12:55;;;;;;;;;;;3.40;88.00;;;;;;5050932;28;20310;-79
2022/12/05 05:15:20;;;;;;;;;;;3.50;87.80;;;;;;5050443;28;19920;-79
2022/12/05 05:17:46;;;;;;;;;;;3.40;87.50;;;;;;5047070;28;19913;-79
2022/12/05 05:20:23;;;;;;;;;;;3.40;87.60;;;;;;5048546;28;19917;-79
2022/12/05 05:22:49;;;;;;;;;;;3.50;87.70;;;;;;5049125;28;19924;-79
2022/12/05 05:25:15;;;;;;;;;;;3.50;87.60;;;;;;5050206;28;19944;-79
2022/12/05 05:27:41;;;;;;;;;;;3.50;87.60;;;;;;5048466;28;20030;-79
2022/12/05 05:30:06;;;;;;;;;;;3.50;87.80;;;;;;5048185;28;20291;-79
2022/12/05 05:32:32;;;;;;;;;;;3.50;87.60;;;;;;5062977;28;19943;-78
2022/12/05 05:34:57;;;;;;;;;;;3.50;87.50;;;;;;5050307;28;19912;-79
2022/12/05 05:37:23;;;;;;;;;;;3.60;87.50;;;;;;5047089;28;19917;-79
2022/12/05 05:39:48;;;;;;;;;;;3.60;87.60;;;;;;5050540;28;19917;-79
2022/12/05 05:42:14;;;;;;;;;;;3.50;87.30;;;;;;5045509;28;19916;-79
2022/12/05 05:44:39;;;;;;;;;;;3.50;87.30;;;;;;5049656;28;19913;-79
2022/12/05 05:47:04;;;;;;;;;;;3.50;87.60;;;;;;5044498;28;19919;-80
2022/12/05 05:49:30;;;;;;;;;;;3.50;87.80;;;;;;5050337;28;20470;-80
2022/12/05 05:51:55;;;;;;;;;;;3.60;88.00;;;;;;5051563;28;19925;-81
2022/12/05 05:54:21;;;;;;;;;;;3.50;87.50;;;;;;5047887;28;19924;-80
2022/12/05 05:56:46;;;;;;;;;;;3.60;86.90;;;;;;5050771;28;19932;-80
2022/12/05 05:59:12;;;;;;;;;;;3.60;87.10;;;;;;5049340;28;20512;-80
2022/12/05 06:01:37;;;;;;;;;;;3.60;87.10;;;;;;5043423;28;19936;-80
2022/12/05 06:04:03;;;;;;;;;;;3.50;87.20;;;;;;5053215;28;19920;-80
2022/12/05 06:06:28;;;;;;;;;;;3.50;87.20;;;;;;5048254;28;19913;-80
2022/12/05 06:08:54;;;;;;;;;;;3.40;87.30;;;;;;5060228;28;19920;-80
2022/12/05 06:11:21;;;;;;;;;;;3.50;87.70;;;;;;5058196;28;20303;-81
2022/12/05 06:13:46;;;;;;;;;;;3.50;87.40;;;;;;5052570;28;19913;-80
2022/12/05 06:16:13;;;;;;;;;;;3.30;87.00;;;;;;5046570;28;20311;-80
2022/12/05 06:18:38;;;;;;;;;;;3.30;87.50;;;;;;5047861;28;19913;-81
2022/12/05 06:21:07;;;;;;;;;;;3.40;87.80;;;;;;5052369;28;19966;-80
2022/12/05 06:23:34;;;;;;;;;;;3.40;87.50;;;;;;5044532;28;19920;-81
2022/12/05 06:25:59;;;;;;;;;;;3.50;87.70;;;;;;5053125;28;20098;-84
2022/12/05 06:28:25;;;;;;;;;;;3.50;87.50;;;;;;5044863;28;19921;-81
2022/12/05 06:30:51;;;;;;;;;;;3.40;87.60;;;;;;5054010;28;19920;-81
2022/12/05 06:33:17;;;;;;;;;;;3.30;87.50;;;;;;5062551;28;19913;-81
2022/12/05 06:35:42;;;;;;;;;;;3.20;87.60;;;;;;5050747;28;19917;-82
2022/12/05 06:38:08;;;;;;;;;;;3.20;87.80;;;;;;5052017;28;19920;-82
2022/12/05 06:40:34;;;;;;;;;;;3.20;88.10;;;;;;5047288;28;20311;-81
2022/12/05 06:42:59;;;;;;;;;;;3.20;88.10;;;;;;5053289;28;19974;-82
2022/12/05 06:45:25;;;;;;;;;;;3.30;87.90;;;;;;5054276;28;19920;-81
2022/12/05 06:47:50;;;;;;;;;;;3.30;87.90;;;;;;5062868;22;19985;-79
2022/12/05 06:50:16;;;;;;;;;;;3.20;87.60;;;;;;5040788;28;20157;-78
2022/12/05 06:52:42;;;;;;;;;;;3.30;87.90;;;;;;5037120;28;19973;-77
2022/12/05 06:55:07;;;;;;;;;;;3.30;87.40;;;;;;5038741;28;19913;-77
2022/12/05 06:57:33;;;;;;;;;;;3.20;87.40;;;;;;5039140;28;19936;-77
2022/12/05 07:02:42;;;;;;;;;;;3.10;87.50;;;;;;5031985;28;20115;-78
2022/12/05 07:05:09;;;;;;;;;;;3.10;87.80;;;;;;5032587;28;19925;-78
2022/12/05 07:07:34;;;;;;;;;;;3.10;87.80;;;;;;5031998;28;19959;-78
2022/12/05 07:10:00;;;;;;;;;;;3.00;87.80;;;;;;5039576;28;19917;-78
2022/12/05 07:12:25;;;;;;;;;;;3.00;87.90;;;;;;5037741;28;19921;-78
2022/12/05 07:14:51;;;;;;;;;;;3.00;87.80;;;;;;5040940;28;19913;-79
2022/12/05 07:17:17;;;;;;;;;;;2.90;87.90;;;;;;5044918;28;19925;-78
2022/12/05 07:19:42;;;;;;;;;;;2.90;87.70;;;;;;5040481;28;19913;-78
2022/12/05 07:22:08;;;;;;;;;;;2.80;87.80;;;;;;5037540;28;19960;-78
2022/12/05 07:24:33;;;;;;;;;;;2.80;87.90;;;;;;5038790;28;19955;-77
2022/12/05 07:26:59;;;;;;;;;;;2.80;87.60;;;;;;5041164;28;19917;-77
2022/12/05 07:29:24;;;;;;;;;;;2.80;87.70;;;;;;5033144;28;19921;-77
2022/12/05 07:31:50;;;;;;;;;;;2.80;87.50;;;;;;5051757;28;19912;-78
2022/12/05 07:34:15;;;;;;;;;;;2.70;87.50;;;;;;5041811;28;19937;-77
2022/12/05 07:36:41;;;;;;;;;;;2.80;87.50;;;;;;5042520;28;20009;-78
2022/12/05 07:39:06;;;;;;;;;;;2.70;87.50;;;;;;5052484;28;19996;-78
2022/12/05 07:41:32;;;;;;;;;;;2.70;87.60;;;;;;5053135;28;19929;-78
2022/12/05 07:43:58;;;;;;;;;;;2.70;87.80;;;;;;5041190;28;20003;-78
2022/12/05 07:46:25;;;;;;;;;;;2.70;87.60;;;;;;5045676;28;20165;-81
2022/12/05 07:48:50;;;;;;;;;;;2.70;87.80;;;;;;5044151;28;19917;-79
2022/12/05 07:51:17;;;;;;;;;;;2.70;87.70;;;;;;5046521;28;19913;-78
2022/12/05 07:53:43;;;;;;;;;;;2.60;87.70;;;;;;5045185;28;20008;-83
2022/12/05 07:56:09;;;;;;;;;;;2.60;87.70;;;;;;5046259;28;19945;-77
2022/12/05 07:58:35;;;;;;;;;;;2.60;87.70;;;;;;5045355;28;19901;-77
2022/12/05 08:01:07;;;;;;;;;;;2.50;87.70;;;;;;5042302;28;19913;-79
2022/12/05 08:03:32;;;;;;;;;;;2.60;87.90;;;;;;5053043;28;19985;-79
2022/12/05 08:06:02;;;;;;;;;;;2.60;87.70;;;;;;5036025;28;19959;-78
2022/12/05 08:08:27;;;;;;;;;;;2.60;87.70;;;;;;5034391;28;19917;-80
2022/12/05 08:10:53;;;;;;;;;;;2.60;87.70;;;;;;5035530;28;19955;-78
2022/12/05 08:13:19;;;;;;;;;;;2.60;87.90;;;;;;5025990;28;19928;-81
2022/12/05 08:15:44;;;;;;;;;;;2.70;87.70;;;;;;5026066;28;20019;-81
2022/12/05 08:18:10;;;;;;;;;;;2.70;87.60;;;;;;5033694;28;19932;-80
2022/12/05 08:20:35;;;;;;;;;;;2.80;87.60;;;;;;5026763;28;20398;-81
2022/12/05 08:23:01;;;;;;;;;;;2.80;87.40;;;;;;5026774;28;19979;-81
2022/12/05 08:25:26;;;;;;;;;;;2.80;87.60;;;;;;5033047;28;19913;-80
2022/12/05 08:27:52;;;;;;;;;;;2.80;87.70;;;;;;5032158;28;19919;-81
2022/12/05 08:30:17;;;;;;;;;;;2.80;87.70;;;;;;5030028;28;19956;-79
2022/12/05 08:32:43;;;;;;;;;;;2.60;87.50;;;;;;5040866;28;19917;-78
2022/12/05 08:35:09;;;;;;;;;;;2.70;87.70;;;;;;5028383;28;19913;-80
2022/12/05 08:37:34;;;;;;;;;;;2.70;87.40;;;;;;5027113;28;20313;-78
2022/12/05 08:39:59;;;;;;;;;;;2.80;87.50;;;;;;5027755;28;19920;-80
2022/12/05 08:42:25;;;;;;;;;;;2.80;87.30;;;;;;5028150;28;20458;-80
2022/12/05 08:44:50;;;;;;;;;;;2.90;87.10;;;;;;5025539;28;20323;-80
2022/12/05 08:47:16;;;;;;;;;;;2.90;87.30;;;;;;5027595;28;20303;-80
2022/12/05 08:49:41;;;;;;;;;;;2.90;87.10;;;;;;5026031;28;20351;-79
2022/12/05 08:52:07;;;;;;;;;;;2.90;87.00;;;;;;5028997;28;20008;-79
2022/12/05 08:54:32;;;;;;;;;;;2.90;87.10;;;;;;5031854;28;20383;-78
2022/12/05 08:56:58;;;;;;;;;;;2.80;87.00;;;;;;5022179;28;19993;-78
2022/12/05 08:59:24;;;;;;;;;;;2.80;87.20;;;;;;5031926;28;19921;-78
2022/12/05 09:01:49;;;;;;;;;;;2.70;87.00;;;;;;5030558;28;19914;-76
2022/12/05 09:04:15;;;;;;;;;;;2.70;87.20;;;;;;5027831;28;19995;-77
2022/12/05 09:06:41;;;;;;;;;;;2.70;87.20;;;;;;5044983;28;19909;-76
2022/12/05 09:09:07;;;;;;;;;;;2.60;87.20;;;;;;5029649;28;19936;-77
2022/12/05 09:11:34;;;;;;;;;;;2.60;87.60;;;;;;5027940;28;20364;-77
2022/12/05 09:14:00;;;;;;;;;;;2.70;87.60;;;;;;5026202;28;20533;-78
2022/12/05 09:16:30;;;;;;;;;;;2.80;87.40;;;;;;5023175;28;19925;-77
2022/12/05 09:18:55;;;;;;;;;;;2.90;87.20;;;;;;5029149;28;19909;-78
2022/12/05 09:21:22;;;;;;;;;;;2.80;87.10;;;;;;5025398;28;19939;-79
2022/12/05 09:23:48;;;;;;;;;;;2.90;87.20;;;;;;5024952;28;19913;-78
2022/12/05 09:26:16;;;;;;;;;;;3.00;87.10;;;;;;5031957;28;19996;-78
2022/12/05 09:28:42;;;;;;;;;;;3.00;87.00;;;;;;5032924;28;20284;-77
2022/12/05 09:31:15;;;;;;;;;;;3.00;87.00;;;;;;5030702;28;19909;-79
2022/12/05 09:33:40;;;;;;;;;;;3.00;86.80;;;;;;5030572;28;20003;-78
2022/12/05 09:36:12;;;;;;;;;;;3.10;86.60;;;;;;5028356;28;20012;-77
2022/12/05 09:38:37;;;;;;;;;;;3.10;86.80;;;;;;5028977;28;20009;-75
2022/12/05 09:41:10;;;;;;;;;;;3.10;86.50;;;;;;5029884;28;20000;-76
2022/12/05 09:43:46;;;;;;;;;;;3.20;86.50;;;;;;5010287;28;19914;-73
2022/12/05 09:46:30;;;;;;;;;;;3.10;86.60;;;;;;5008306;28;19924;-75
2022/12/05 09:48:56;;;;;;;;;;;3.00;86.40;;;;;;5009989;28;19990;-75
2022/12/05 09:51:22;;;;;;;;;;;3.10;86.20;;;;;;5028420;28;20396;-75
2022/12/05 09:53:47;;;;;;;;;;;3.10;86.40;;;;;;5029853;28;20004;-75
2022/12/05 09:56:25;;;;;;;;;;;3.10;86.50;;;;;;5030066;28;20361;-75
2022/12/05 09:58:52;;;;;;;;;;;3.10;86.50;;;;;;5031741;28;19913;-76
2022/12/05 10:01:37;;;;;;;;;;;3.20;86.50;;;;;;5033213;28;19963;-75
2022/12/05 10:04:06;;;;;;;;;;;3.20;86.10;;;;;;5032657;28;20265;-76
2022/12/05 10:06:40;;;;;;;;;;;3.20;85.90;;;;;;5032737;28;19963;-75
2022/12/05 10:09:24;;;;;;;;;;;3.10;85.80;;;;;;5033752;28;20012;-77
2022/12/05 10:11:57;;;;;;;;;;;3.00;86.30;;;;;;5031820;28;19995;-76
2022/12/05 10:14:32;;;;;;;;;;;3.10;86.40;;;;;;5033117;28;19913;-75
2022/12/05 10:17:02;;;;;;;;;;;3.30;86.00;;;;;;5033121;28;19913;-76
2022/12/05 10:19:31;;;;;;;;;;;3.30;85.90;;;;;;5033928;28;19925;-76
2022/12/05 10:22:18;;;;;;;;;;;3.30;86.40;;;;;;5031276;28;19920;-74
2022/12/05 10:24:45;;;;;;;;;;;3.30;86.10;;;;;;5033615;28;19913;-73
2022/12/05 10:27:18;;;;;;;;;;;3.40;86.10;;;;;;5029412;28;19917;-75
2022/12/05 10:29:50;;;;;;;;;;;3.30;86.00;;;;;;5032158;28;19920;-73
2022/12/05 10:32:18;;;;;;;;;;;3.30;85.90;;;;;;5030878;28;19993;-75
2022/12/05 10:34:44;;;;;;;;;;;3.20;85.90;;;;;;5032644;28;19924;-76
2022/12/05 10:37:20;;;;;;;;;;;3.30;86.30;;;;;;5032529;28;19920;-76
2022/12/05 10:39:47;;;;;;;;;;;3.30;86.40;;;;;;5032746;28;19991;-76
2022/12/05 10:42:14;;;;;;;;;;;3.20;86.20;;;;;;5033080;28;19913;-76
2022/12/05 10:44:40;;;;;;;;;;;3.30;86.00;;;;;;5030241;28;20004;-75
2022/12/05 10:47:06;;;;;;;;;;;3.30;85.90;;;;;;5030668;28;19961;-76
2022/12/05 10:49:32;;;;;;;;;;;3.20;85.90;;;;;;5031642;28;19913;-76
2022/12/05 10:51:58;;;;;;;;;;;3.20;85.90;;;;;;5032144;28;20012;-76
2022/12/05 10:54:25;;;;;;;;;;;3.10;86.00;;;;;;5029381;28;20004;-75
2022/12/05 10:56:51;;;;;;;;;;;3.10;86.10;;;;;;5030674;28;19917;-76
2022/12/05 10:59:18;;;;;;;;;;;3.10;86.20;;;;;;5031241;28;19916;-77
2022/12/05 11:01:45;;;;;;;;;;;3.00;86.20;;;;;;5030517;28;20324;-79
2022/12/05 11:04:26;;;;;;;;;;;3.00;86.50;;;;;;5032137;28;19920;-78
2022/12/05 11:06:54;;;;;;;;;;;3.00;86.70;;;;;;5027789;28;19956;-77
2022/12/05 11:09:21;;;;;;;;;;;3.00;86.70;;;;;;5030798;28;19952;-77
2022/12/05 11:12:06;;;;;;;;;;;3.00;87.10;;;;;;5029923;28;19920;-78
2022/12/05 11:14:33;;;;;;;;;;;3.00;86.90;;;;;;5030612;28;19963;-75
2022/12/05 11:16:59;;;;;;;;;;;3.00;86.80;;;;;;5028582;28;19924;-76
2022/12/05 11:19:27;;;;;;;;;;;3.00;86.70;;;;;;5032103;28;19928;-74
2022/12/05 11:21:53;;;;;;;;;;;3.10;86.70;;;;;;5032517;28;20001;-75
2022/12/05 11:24:32;;;;;;;;;;;3.10;86.60;;;;;;5031689;28;19921;-76
2022/12/05 11:26:59;;;;;;;;;;;3.10;86.50;;;;;;5032088;28;20460;-76
2022/12/05 11:29:28;;;;;;;;;;;3.00;86.70;;;;;;5029768;28;19917;-75
2022/12/05 11:31:54;;;;;;;;;;;3.00;86.70;;;;;;5029655;28;19982;-77
2022/12/05 11:34:22;;;;;;;;;;;3.00;87.00;;;;;;5031063;28;20436;-77
2022/12/05 11:36:51;;;;;;;;;;;3.00;87.00;;;;;;5032321;28;19921;-76
2022/12/05 11:39:16;;;;;;;;;;;3.10;86.50;;;;;;5026451;28;19924;-76
2022/12/05 11:42:05;;;;;;;;;;;3.10;86.50;;;;;;5030526;28;19913;-76
2022/12/05 11:44:36;;;;;;;;;;;3.00;86.50;;;;;;5032298;28;20337;-76
2022/12/05 11:47:14;;;;;;;;;;;3.00;86.40;;;;;;5031652;28;20007;-77
2022/12/05 11:50:06;;;;;;;;;;;3.00;86.80;;;;;;5032503;28;19916;-76
2022/12/05 11:52:51;;;;;;;;;;;3.00;86.70;;;;;;5029237;28;19914;-78
2022/12/05 11:55:25;;;;;;;;;;;2.90;86.70;;;;;;5031227;28;19979;-79
2022/12/05 11:58:02;;;;;;;;;;;3.00;86.60;;;;;;5031463;28;20306;-75
2022/12/05 12:00:34;;;;;;;;;;;2.90;86.60;;;;;;5031741;28;19978;-76
2022/12/05 12:03:18;;;;;;;;;;;3.00;86.80;;;;;;5030694;28;20422;-76
2022/12/05 12:05:46;;;;;;;;;;;3.00;86.20;;;;;;5031570;28;19992;-76
2022/12/05 12:08:14;;;;;;;;;;;3.00;86.40;;;;;;5030831;28;19909;-78
2022/12/05 12:10:59;;;;;;;;;;;3.00;86.40;;;;;;5029544;28;20338;-77
2022/12/05 12:13:29;;;;;;;;;;;2.90;86.50;;;;;;5027842;28;19917;-78
2022/12/05 12:16:14;;;;;;;;;;;2.90;86.70;;;;;;5030839;28;19909;-77
2022/12/05 12:18:58;;;;;;;;;;;2.80;86.90;;;;;;5031149;28;19956;-76
2022/12/05 12:21:32;;;;;;;;;;;3.00;86.80;;;;;;5031286;28;19909;-78
2022/12/05 12:24:04;;;;;;;;;;;2.90;86.40;;;;;;5029489;28;19964;-77
2022/12/05 12:26:39;;;;;;;;;;;2.90;86.60;;;;;;5029893;28;20356;-80
2022/12/05 12:29:13;;;;;;;;;;;3.00;86.70;;;;;;5031242;28;19979;-79
2022/12/05 12:31:45;;;;;;;;;;;3.00;86.50;;;;;;5030660;28;19963;-78
2022/12/05 12:34:21;;;;;;;;;;;3.00;86.50;;;;;;5029875;28;19913;-78
2022/12/05 12:36:53;;;;;;;;;;;3.00;86.40;;;;;;5031393;28;19957;-77
2022/12/05 12:39:25;;;;;;;;;;;3.00;86.60;;;;;;5031371;28;20028;-78
2022/12/05 12:41:56;;;;;;;;;;;2.90;86.30;;;;;;5028434;28;19920;-78
2022/12/05 12:44:27;;;;;;;;;;;2.90;86.40;;;;;;5029723;28;20274;-78
2022/12/05 12:46:54;;;;;;;;;;;2.80;86.40;;;;;;5060304;22;20024;-83
2022/12/05 12:49:26;;;;;;;;;;;2.80;86.70;;;;;;5070986;28;19920;-83
2022/12/05 12:52:00;;;;;;;;;;;2.80;86.80;;;;;;5068736;28;19916;-84
2022/12/05 12:54:56;;;;;;;;;;;2.90;86.80;;;;;;5078260;28;19909;-82
2022/12/05 12:57:40;;;;;;;;;;;2.90;86.50;;;;;;5064229;28;19916;-83
2022/12/05 13:00:07;;;;;;;;;;;2.90;86.70;;;;;;5072675;28;20392;-84
2022/12/05 13:02:42;;;;;;;;;;;2.90;86.80;;;;;;5074160;28;19912;-83
2022/12/05 13:05:20;;;;;;;;;;;2.90;86.80;;;;;;5074952;28;19912;-83
2022/12/05 13:07:50;;;;;;;;;;;2.80;86.90;;;;;;5073879;28;19916;-83
2022/12/05 13:10:27;;;;;;;;;;;2.80;86.90;;;;;;5085925;28;19923;-83
2022/12/05 13:12:54;;;;;;;;;;;2.80;86.80;;;;;;5079265;28;19948;-83
2022/12/05 13:15:26;;;;;;;;;;;2.70;86.80;;;;;;5075979;28;19917;-83
2022/12/05 13:17:53;;;;;;;;;;;2.70;86.90;;;;;;5075443;28;20079;-83
2022/12/05 13:20:20;;;;;;;;;;;2.60;87.20;;;;;;5086391;28;19912;-84
2022/12/05 13:22:46;;;;;;;;;;;2.60;87.20;;;;;;5089153;28;19915;-84
2022/12/05 13:25:13;;;;;;;;;;;2.60;87.20;;;;;;5104369;28;20415;-83
2022/12/05 13:27:38;;;;;;;;;;;2.70;87.10;;;;;;5075304;28;19970;-84
2022/12/05 13:30:04;;;;;;;;;;;2.60;87.10;;;;;;5082465;28;19909;-83
2022/12/05 13:32:35;;;;;;;;;;;2.60;87.30;;;;;;5076011;28;19919;-84
2022/12/05 13:35:00;;;;;;;;;;;2.60;87.30;;;;;;5081997;28;19994;-82
2022/12/05 13:43:06;;;;;;;;;;;2.50;87.90;;;;;;5075188;28;19934;-84
2022/12/05 13:45:32;;;;;;;;;;;2.50;87.80;;;;;;5085016;28;20000;-84
2022/12/05 13:47:58;;;;;;;;;;;2.50;87.90;;;;;;5072366;28;20000;-84
2022/12/05 13:50:32;;;;;;;;;;;2.60;87.80;;;;;;5075372;28;20006;-84
2022/12/05 13:53:00;;;;;;;;;;;2.60;87.70;;;;;;5076564;28;19917;-82
2022/12/05 13:55:31;;;;;;;;;;;2.50;87.60;;;;;;5072754;28;20042;-83
2022/12/05 13:58:01;;;;;;;;;;;2.60;87.70;;;;;;5072010;28;19982;-82
2022/12/05 14:00:31;;;;;;;;;;;2.50;87.70;;;;;;5075217;28;19909;-87
2022/12/05 14:03:01;;;;;;;;;;;2.60;87.80;;;;;;5091851;28;19908;-82
2022/12/05 14:05:48;;;;;;;;;;;2.60;87.80;;;;;;5078656;28;20308;-81
2022/12/05 14:08:34;;;;;;;;;;;2.60;87.70;;;;;;5073077;28;19921;-84
2022/12/05 14:11:00;;;;;;;;;;;2.60;87.70;;;;;;5076212;28;19912;-81
2022/12/05 14:13:32;;;;;;;;;;;2.70;87.50;;;;;;5072190;28;19917;-81
2022/12/05 14:16:16;;;;;;;;;;;2.80;87.30;;;;;;5073267;28;19920;-81
2022/12/05 14:18:42;;;;;;;;;;;2.80;87.20;;;;;;5073133;28;20376;-81
2022/12/05 14:21:15;;;;;;;;;;;2.70;87.00;;;;;;5075576;28;19939;-81
2022/12/05 14:24:16;;;;;;;;;;;2.70;87.20;;;;;;5074499;28;20028;-80
2022/12/05 14:26:50;;;;;;;;;;;2.70;87.10;;;;;;5052878;28;19915;-80
2022/12/05 14:29:23;;;;;;;;;;;2.80;87.00;;;;;;5069266;28;19974;-80
2022/12/05 14:32:28;;;;;;;;;;;2.70;87.10;;;;;;5071058;28;19913;-80
2022/12/05 14:34:57;;;;;;;;;;;2.60;87.00;;;;;;5031725;28;19909;-81
2022/12/05 14:37:26;;;;;;;;;;;2.60;87.10;;;;;;5050275;28;20011;-81
2022/12/05 14:39:52;;;;;;;;;;;2.60;87.20;;;;;;5052766;28;20050;-81
2022/12/05 14:42:20;;;;;;;;;;;2.50;87.50;;;;;;5090500;28;19909;-79
2022/12/05 14:44:47;;;;;;;;;;;2.60;87.60;;;;;;5081248;28;19981;-80
2022/12/05 14:47:17;;;;;;;;;;;2.70;87.20;;;;;;5085561;28;19967;-81
2022/12/05 14:50:02;;;;;;;;;;;2.60;87.20;;;;;;5078724;28;19913;-81
2022/12/05 14:52:29;;;;;;;;;;;2.60;87.50;;;;;;5075305;28;19912;-81
2022/12/05 14:55:04;;;;;;;;;;;2.60;87.50;;;;;;5076776;28;19963;-82